Time;durP1;ratioP1;P1;durP2;ratioP2;P2;SDS_P1;SDS_P2;PMS_P1;PMS_P2;Temp;Humidity;BMP_temperature;BMP_pressure;BME280_temperature;BME280_humidity;BME280_pressure;Samples;Min_cycle;Max_cycle;Signal;HPM_P1;HPM_P2
2022/03/31 00:01:30;;;;;;;13.85;5.82;;;;;;;-0.26;50.68;98970.75;5062466;28;20020;-56
2022/03/31 00:03:56;;;;;;;14.90;6.15;;;;;;;-0.28;50.10;98980.06;5062479;28;20047;-56
2022/03/31 00:06:21;;;;;;;10.93;5.90;;;;;;;-0.28;49.15;98972.44;5062378;28;20218;-56
2022/03/31 00:08:47;;;;;;;11.63;6.38;;;;;;;-0.29;51.73;98975.81;5062198;28;20041;-56
2022/03/31 00:11:12;;;;;;;15.70;6.18;;;;;;;-0.28;50.29;98976.69;5062478;28;20021;-56
2022/03/31 00:13:41;;;;;;;12.55;6.72;;;;;;;-0.28;51.37;98981.78;5062167;28;20040;-58
2022/03/31 00:16:06;;;;;;;12.48;6.63;;;;;;;-0.33;51.29;98981.69;5061980;28;20068;-57
2022/03/31 00:18:33;;;;;;;15.23;7.15;;;;;;;-0.30;50.34;98984.31;5062160;28;20033;-57
2022/03/31 00:21:00;;;;;;;10.68;5.68;;;;;;;-0.45;51.25;98963.78;5061967;28;20156;-57
2022/03/31 00:33:31;;;;;;;15.85;6.65;;;;;;;-0.44;51.85;98989.22;5061294;28;20041;-56
2022/03/31 00:35:56;;;;;;;13.98;6.53;;;;;;;-0.51;51.75;98974.75;5061906;28;20036;-56
2022/03/31 00:38:22;;;;;;;13.73;6.55;;;;;;;-0.39;50.55;98984.19;5050428;28;20032;-57
2022/03/31 00:40:47;;;;;;;12.60;6.75;;;;;;;-0.44;50.90;98994.31;5047617;28;20032;-57
2022/03/31 00:43:13;;;;;;;16.98;6.40;;;;;;;-0.48;51.88;98984.09;5062009;28;20059;-57
2022/03/31 00:45:48;;;;;;;11.70;6.07;;;;;;;-0.45;51.98;98994.31;5061601;28;20217;-57
2022/03/31 00:48:15;;;;;;;12.32;6.72;;;;;;;-0.55;52.52;98971.28;5060699;28;20100;-57
2022/03/31 00:50:42;;;;;;;13.50;5.85;;;;;;;-0.62;52.02;98994.94;5061233;28;20047;-57
2022/03/31 00:53:08;;;;;;;14.88;7.40;;;;;;;-0.60;51.63;98990.75;5066966;28;20232;-57
2022/03/31 00:55:34;;;;;;;17.30;6.50;;;;;;;-0.60;51.62;98997.50;5077420;28;20078;-57
2022/03/31 00:58:01;;;;;;;12.32;6.95;;;;;;;-0.68;51.96;98983.84;5061384;28;20165;-57
2022/03/31 01:00:29;;;;;;;12.85;6.60;;;;;;;-0.62;52.79;98989.84;5061072;28;20025;-56
2022/03/31 01:02:55;;;;;;;11.80;7.03;;;;;;;-0.64;52.36;98993.22;5061461;28;20045;-56
2022/03/31 01:05:20;;;;;;;15.38;6.35;;;;;;;-0.56;51.71;98999.25;5060280;28;20273;-57
2022/03/31 01:07:46;;;;;;;13.45;6.95;;;;;;;-0.67;52.73;98990.63;5061353;28;20025;-56
2022/03/31 01:10:13;;;;;;;13.13;6.63;;;;;;;-0.63;52.44;99026.28;5061587;28;20028;-55
2022/03/31 01:12:39;;;;;;;15.20;7.05;;;;;;;-0.60;52.54;99003.47;5061807;28;20039;-56
2022/03/31 01:15:06;;;;;;;12.88;6.18;;;;;;;-0.60;52.48;99006.00;5060816;28;20613;-56
2022/03/31 01:17:37;;;;;;;10.65;6.32;;;;;;;-0.61;51.98;99004.28;5060907;28;20025;-56
2022/03/31 01:20:05;;;;;;;16.02;7.00;;;;;;;-0.68;52.40;99004.16;5061172;28;20024;-57
2022/03/31 01:22:32;;;;;;;16.60;6.82;;;;;;;-0.64;53.03;99004.25;5059931;28;20025;-56
2022/03/31 01:24:59;;;;;;;11.68;6.70;;;;;;;-0.66;52.43;99011.00;5061360;28;20021;-56
2022/03/31 01:27:25;;;;;;;9.75;5.90;;;;;;;-0.74;53.06;98995.66;5061387;28;20075;-56
2022/03/31 01:29:52;;;;;;;13.93;6.82;;;;;;;-0.71;53.57;99005.00;5060905;28;20028;-56
2022/03/31 01:32:18;;;;;;;14.82;7.85;;;;;;;-0.77;53.66;99004.91;5061267;28;20031;-56
2022/03/31 01:34:44;;;;;;;22.48;7.78;;;;;;;-0.82;53.54;99004.00;5061159;28;20021;-57
2022/03/31 01:37:10;;;;;;;13.35;7.25;;;;;;;-0.86;53.76;99000.56;5060138;28;20032;-57
2022/03/31 01:39:35;;;;;;;15.57;7.50;;;;;;;-0.86;54.24;99000.56;5061411;28;20055;-57
2022/03/31 01:42:01;;;;;;;19.00;8.05;;;;;;;-0.97;54.45;99008.06;5051390;28;20036;-57
2022/03/31 01:44:27;;;;;;;16.42;7.82;;;;;;;-0.90;54.92;99002.22;5051819;28;20025;-56
2022/03/31 01:46:53;;;;;;;17.75;8.07;;;;;;;-0.91;54.14;99008.13;5064931;28;20045;-57
2022/03/31 01:49:19;;;;;;;18.20;7.78;;;;;;;-0.89;55.21;99011.53;5064854;28;20229;-56
2022/03/31 01:51:44;;;;;;;16.00;7.00;;;;;;;-0.81;53.51;99021.81;5063473;28;20037;-56
2022/03/31 01:54:10;;;;;;;13.80;7.82;;;;;;;-0.82;55.03;99014.19;5079062;28;20032;-56
2022/03/31 01:56:41;;;;;;;18.10;8.35;;;;;;;-1.31;54.59;98940.66;5059521;28;20031;-56
2022/03/31 01:59:07;;;;;;;18.35;7.90;;;;;;;-0.93;55.02;99014.03;5052320;28;20111;-57
2022/03/31 02:01:32;;;;;;;17.70;7.72;;;;;;;-0.96;54.74;99006.38;5064182;28;20029;-57
2022/03/31 02:03:58;;;;;;;14.43;8.10;;;;;;;-1.15;55.45;99010.34;5064328;28;20028;-57
2022/03/31 02:06:23;;;;;;;17.80;8.15;;;;;;;-1.07;55.80;99006.19;5063694;28;20025;-56
2022/03/31 02:08:49;;;;;;;15.95;8.13;;;;;;;-0.98;54.91;99024.13;5064236;28;20035;-56
2022/03/31 02:11:15;;;;;;;14.48;7.32;;;;;;;-1.00;55.17;99022.41;5063806;28;20020;-57
2022/03/31 02:13:41;;;;;;;18.27;8.15;;;;;;;-0.95;56.14;99016.53;5064541;28;20270;-56
2022/03/31 02:16:06;;;;;;;16.90;8.68;;;;;;;-0.98;56.36;99028.34;5063809;28;20041;-57
2022/03/31 02:18:32;;;;;;;18.45;8.30;;;;;;;-1.03;54.94;99022.34;5063623;28;20036;-57
2022/03/31 02:20:57;;;;;;;16.27;7.82;;;;;;;-1.02;56.39;99021.53;5064138;28;20020;-56
2022/03/31 02:23:23;;;;;;;18.23;8.65;;;;;;;-1.13;56.40;99024.75;5063901;28;20252;-57
2022/03/31 02:25:48;;;;;;;13.82;8.25;;;;;;;-1.14;56.23;99007.81;5063820;28;20021;-59
2022/03/31 02:28:14;;;;;;;18.23;8.70;;;;;;;-1.48;56.03;98971.75;5063427;28;20017;-58
2022/03/31 02:30:40;;;;;;;17.10;9.30;;;;;;;-1.28;56.01;99007.59;5063713;28;20025;-57
2022/03/31 02:33:06;;;;;;;19.15;8.00;;;;;;;-1.23;56.70;99015.28;5063530;28;20079;-57
2022/03/31 02:35:31;;;;;;;14.18;8.45;;;;;;;-1.18;57.42;99016.22;5063597;28;20029;-59
2022/03/31 02:37:57;;;;;;;18.80;8.55;;;;;;;-1.26;56.42;99013.53;5063692;28;20025;-57
2022/03/31 02:40:23;;;;;;;16.45;8.23;;;;;;;-1.25;56.63;99025.44;5063233;28;20017;-57
2022/03/31 02:42:49;;;;;;;15.40;8.05;;;;;;;-1.29;55.84;99017.75;5063625;28;20080;-57
2022/03/31 02:45:15;;;;;;;16.83;8.32;;;;;;;-1.28;56.85;99024.53;5063307;28;20051;-58
2022/03/31 02:47:44;;;;;;;20.88;8.30;;;;;;;-1.27;57.08;99031.31;5061891;28;20037;-58
2022/03/31 02:50:10;;;;;;;13.93;8.07;;;;;;;-1.34;57.08;99020.22;5063359;28;20048;-57
2022/03/31 02:55:28;;;;;;;14.73;8.23;;;;;;;-1.36;57.94;99019.31;5062019;28;20025;-56
2022/03/31 02:57:55;;;;;;;23.23;9.05;;;;;;;-1.32;57.06;99033.78;5043513;28;20040;-57
2022/03/31 03:00:21;;;;;;;13.48;8.10;;;;;;;-1.35;58.09;99036.28;5060606;28;20029;-58
2022/03/31 03:02:47;;;;;;;14.15;8.77;;;;;;;-1.28;58.21;99037.25;5062701;28;20206;-58
2022/03/31 03:05:14;;;;;;;14.90;8.20;;;;;;;-1.25;58.57;99034.75;5063320;28;20047;-58
2022/03/31 03:07:40;;;;;;;21.60;8.88;;;;;;;-1.34;58.79;99025.31;5063795;28;20351;-58
2022/03/31 03:10:05;;;;;;;18.63;9.32;;;;;;;-1.28;57.77;99033.00;5063317;28;20028;-58
2022/03/31 03:12:31;;;;;;;20.48;8.57;;;;;;;-1.31;58.71;99030.41;5062748;28;20024;-58
2022/03/31 03:14:57;;;;;;;16.92;8.50;;;;;;;-1.24;58.20;99041.50;5062427;28;20025;-58
2022/03/31 03:17:22;;;;;;;15.15;8.35;;;;;;;-1.18;57.89;99035.66;5062661;28;20021;-58
2022/03/31 03:19:48;;;;;;;14.20;9.13;;;;;;;-1.22;58.77;99034.78;5062691;28;20032;-59
2022/03/31 03:22:14;;;;;;;15.88;9.32;;;;;;;-1.26;58.86;99049.09;5062978;28;20051;-58
2022/03/31 03:24:40;;;;;;;24.50;9.55;;;;;;;-1.23;58.03;99054.25;5062520;28;20092;-58
2022/03/31 03:27:05;;;;;;;20.17;9.23;;;;;;;-1.26;57.70;99059.28;5062515;28;20074;-59
2022/03/31 03:29:31;;;;;;;17.42;9.50;;;;;;;-1.21;58.96;99056.81;5062461;28;20071;-59
2022/03/31 03:31:57;;;;;;;20.25;9.05;;;;;;;-1.19;58.25;99056.84;5062380;28;20029;-59
2022/03/31 03:34:22;;;;;;;20.02;10.20;;;;;;;-1.20;59.56;99061.06;5061182;28;20017;-59
2022/03/31 03:36:48;;;;;;;26.95;10.10;;;;;;;-1.19;58.71;99065.31;5062356;28;20024;-59
2022/03/31 03:39:14;;;;;;;20.48;10.15;;;;;;;-1.15;nan;99063.69;5062457;28;20067;-59
2022/03/31 03:41:41;;;;;;;19.02;9.50;;;;;;;-1.10;58.96;99059.50;5062380;28;20029;-59
2022/03/31 03:44:07;;;;;;;19.17;9.35;;;;;;;-1.08;59.25;99060.41;5062360;28;20044;-58
2022/03/31 03:46:34;;;;;;;18.30;9.70;;;;;;;-1.06;59.75;99063.81;5061912;28;20021;-58
2022/03/31 03:49:00;;;;;;;25.20;12.25;;;;;;;-1.02;59.49;99060.50;5062352;28;20024;-58
2022/03/31 03:51:26;;;;;;;18.67;9.75;;;;;;;-1.08;58.59;99045.16;5062034;28;20330;-58
2022/03/31 03:53:52;;;;;;;23.92;10.13;;;;;;;-0.94;59.04;99053.84;5075016;28;20025;-58
2022/03/31 03:56:18;;;;;;;17.83;8.88;;;;;;;-0.83;57.85;99055.66;5073361;28;20233;-58
2022/03/31 03:58:43;;;;;;;19.13;10.13;;;;;;;-0.78;58.50;99054.91;5061922;28;20020;-58
2022/03/31 04:01:09;;;;;;;21.20;9.75;;;;;;;-0.73;59.92;99049.88;5053596;28;20364;-57
2022/03/31 04:03:35;;;;;;;26.17;11.55;;;;;;;-0.66;58.42;99056.75;5060740;28;20147;-57
2022/03/31 04:06:01;;;;;;;19.55;10.00;;;;;;;-0.58;58.52;99065.34;5061705;28;20074;-57
2022/03/31 04:08:27;;;;;;;19.27;8.68;;;;;;;-0.55;58.61;99074.72;5060019;28;20088;-58
2022/03/31 04:10:53;;;;;;;16.92;8.30;;;;;;;-0.46;58.63;99071.44;5062214;28;20059;-57
2022/03/31 04:13:18;;;;;;;22.55;9.43;;;;;;;-0.39;58.64;99070.66;5062465;28;20036;-57
2022/03/31 04:15:44;;;;;;;20.98;8.88;;;;;;;-0.35;59.72;99074.97;5062382;28;20131;-57
2022/03/31 04:18:10;;;;;;;18.63;9.15;;;;;;;-0.42;59.85;99050.28;5073352;28;20249;-57
2022/03/31 04:20:35;;;;;;;17.85;8.48;;;;;;;-0.27;58.91;99073.38;5065406;28;20029;-58
2022/03/31 04:23:02;;;;;;;13.18;8.32;;;;;;;-0.16;57.90;99082.81;5062430;28;20092;-57
2022/03/31 04:25:27;;;;;;;12.23;7.57;;;;;;;-0.26;57.62;99066.59;5062236;28;20020;-54
2022/03/31 04:27:53;;;;;;;14.05;8.45;;;;;;;-0.08;58.77;99089.72;5062620;28;20201;-55
2022/03/31 04:30:21;;;;;;;21.60;8.80;;;;;;;0.05;59.52;99083.06;5062229;28;20044;-55
2022/03/31 04:32:47;;;;;;;13.85;7.70;;;;;;;-0.09;57.55;99075.25;5062140;28;20025;-54
2022/03/31 04:35:14;;;;;;;13.38;8.15;;;;;;;-0.20;57.98;99077.69;5062233;28;20066;-55
2022/03/31 04:37:40;;;;;;;14.10;8.20;;;;;;;-0.32;58.89;99087.72;5070453;28;20087;-55
2022/03/31 04:40:06;;;;;;;14.82;7.65;;;;;;;-0.20;58.71;99087.00;5071757;28;20208;-58
2022/03/31 04:42:32;;;;;;;17.38;7.45;;;;;;;-0.24;59.57;99082.75;5070584;28;20016;-54
2022/03/31 04:44:58;;;;;;;15.63;6.75;;;;;;;-0.29;60.30;99092.84;5070099;28;20127;-55
2022/03/31 04:47:23;;;;;;;13.88;6.53;;;;;;;-0.23;59.46;99084.44;5060362;28;20024;-56
2022/03/31 04:49:49;;;;;;;13.63;7.00;;;;;;;0.03;59.16;99089.84;5060927;28;20033;-56
2022/03/31 04:52:15;;;;;;;13.70;7.68;;;;;;;-0.25;60.67;99073.38;5061264;28;20190;-53
2022/03/31 04:54:43;;;;;;;13.35;7.20;;;;;;;-0.02;60.22;99084.69;5061268;28;20048;-58
2022/03/31 04:57:20;;;;;;;11.52;6.25;;;;;;;0.06;59.83;99092.41;5063815;28;20086;-56
2022/03/31 04:59:45;;;;;;;12.98;6.80;;;;;;;0.25;59.17;99092.63;5061075;28;20025;-57
2022/03/31 05:02:12;;;;;;;12.35;6.35;;;;;;;0.34;59.56;99085.06;5060908;28;20086;-58
2022/03/31 05:04:39;;;;;;;13.43;6.97;;;;;;;0.27;60.02;99101.13;5060987;28;20036;-56
2022/03/31 05:07:05;;;;;;;12.32;7.05;;;;;;;0.53;59.45;99101.38;5059445;28;20309;-57
2022/03/31 05:09:30;;;;;;;13.13;5.85;;;;;;;0.59;59.90;99100.59;5060318;28;20033;-57
2022/03/31 05:11:56;;;;;;;11.85;5.85;;;;;;;0.65;59.20;99101.47;5060512;28;20025;-57
2022/03/31 05:14:22;;;;;;;13.48;6.13;;;;;;;0.27;61.08;99088.38;5060593;28;20081;-57
2022/03/31 05:16:47;;;;;;;11.30;6.05;;;;;;;0.56;60.20;99100.56;5060372;28;20356;-56
2022/03/31 05:19:13;;;;;;;8.65;5.50;;;;;;;0.71;60.55;99094.75;5060520;28;20033;-58
2022/03/31 05:21:38;;;;;;;9.48;5.57;;;;;;;0.96;59.68;99101.75;5063913;28;20333;-57
2022/03/31 05:24:05;;;;;;;13.90;5.75;;;;;;;1.14;59.32;99100.16;5064834;28;20037;-57
2022/03/31 05:26:31;;;;;;;11.63;5.70;;;;;;;1.15;59.87;99102.72;5064179;28;20067;-56
2022/03/31 05:28:57;;;;;;;11.50;5.25;;;;;;;1.23;59.59;99112.13;5064712;28;20248;-56
2022/03/31 05:31:23;;;;;;;14.43;5.15;;;;;;;1.47;58.98;99099.56;5064603;28;20034;-56
2022/03/31 05:33:48;;;;;;;8.98;5.15;;;;;;;1.62;58.99;99108.13;5064498;28;20106;-57
2022/03/31 05:36:14;;;;;;;8.18;4.57;;;;;;;1.53;58.68;99068.94;5064484;28;20225;-57
2022/03/31 05:38:39;;;;;;;8.57;5.13;;;;;;;1.78;58.92;99104.81;5064514;28;20021;-56
2022/03/31 05:41:05;;;;;;;11.85;5.55;;;;;;;1.87;58.67;99102.28;5064238;28;20025;-57
2022/03/31 05:43:31;;;;;;;13.90;5.95;;;;;;;1.54;59.85;99103.00;5064425;28;20233;-57
2022/03/31 05:45:56;;;;;;;8.60;4.80;;;;;;;1.63;60.13;99109.84;5064768;28;20033;-57
2022/03/31 05:48:22;;;;;;;11.95;5.00;;;;;;;1.88;59.75;99111.66;5065155;28;20029;-56
2022/03/31 05:50:47;;;;;;;7.50;4.60;;;;;;;2.05;59.26;99098.09;5065268;28;20047;-57
2022/03/31 05:53:13;;;;;;;6.35;4.70;;;;;;;2.29;59.09;99099.88;5066148;28;20056;-57
2022/03/31 05:55:40;;;;;;;8.43;5.22;;;;;;;1.84;59.36;99109.94;5065267;28;20021;-57
2022/03/31 05:58:06;;;;;;;8.75;4.78;;;;;;;2.07;59.60;99106.63;5065605;28;20081;-57
2022/03/31 06:00:32;;;;;;;10.52;4.75;;;;;;;2.48;59.06;99103.34;5065224;28;20248;-57
2022/03/31 06:02:58;;;;;;;8.02;4.55;;;;;;;2.91;57.99;99113.59;5064773;28;20033;-60
2022/03/31 06:05:24;;;;;;;9.52;4.65;;;;;;;3.16;57.51;99108.47;5058088;28;20048;-57
2022/03/31 06:07:52;;;;;;;12.38;4.30;;;;;;;3.32;57.22;99090.53;5047666;28;20229;-58
2022/03/31 06:10:19;;;;;;;6.55;4.10;;;;;;;3.66;56.71;99110.94;5062763;28;20045;-56
2022/03/31 06:12:46;;;;;;;7.57;4.35;;;;;;;3.80;55.75;99117.75;5061230;28;20452;-57
2022/03/31 06:15:11;;;;;;;6.50;4.32;;;;;;;3.81;55.37;99123.72;5063022;28;20446;-58
2022/03/31 06:17:40;;;;;;;10.30;4.25;;;;;;;3.88;55.83;99129.66;5062641;28;20032;-57
2022/03/31 06:20:07;;;;;;;10.02;4.55;;;;;;;3.88;55.54;99130.50;5062514;28;20399;-57
2022/03/31 06:22:33;;;;;;;9.43;4.90;;;;;;;4.06;54.87;99138.97;5063349;28;20045;-57
2022/03/31 06:24:59;;;;;;;9.93;4.72;;;;;;;4.28;54.53;99138.03;5062501;28;20040;-57
2022/03/31 06:27:24;;;;;;;6.97;4.70;;;;;;;4.30;55.30;99140.56;5062397;28;20207;-57
2022/03/31 06:29:52;;;;;;;11.13;5.30;;;;;;;4.25;54.37;99150.88;5063382;28;20063;-57
2022/03/31 06:32:18;;;;;;;6.13;4.63;;;;;;;4.37;53.97;99155.06;5061668;28;20086;-57
2022/03/31 06:34:43;;;;;;;11.13;5.10;;;;;;;4.53;54.65;99149.88;5062082;28;20229;-58
2022/03/31 06:37:10;;;;;;;10.90;5.07;;;;;;;4.51;53.69;99154.16;5063082;28;20039;-57
2022/03/31 06:39:35;;;;;;;7.20;4.47;;;;;;;4.25;54.41;99143.16;5063353;28;20032;-59
2022/03/31 06:42:01;;;;;;;11.32;4.85;;;;;;;4.13;54.55;99150.91;5060924;28;20229;-57
2022/03/31 06:44:27;;;;;;;9.00;5.13;;;;;;;3.79;55.39;99153.56;5062346;28;20025;-58
2022/03/31 06:46:52;;;;;;;12.10;6.18;;;;;;;4.27;55.68;99148.28;5062016;28;20098;-57
2022/03/31 06:49:18;;;;;;;10.02;4.40;;;;;;;4.40;54.20;99149.91;5061925;28;20025;-57
2022/03/31 06:51:44;;;;;;;13.52;4.85;;;;;;;4.35;54.82;99143.97;5062718;28;20249;-57
2022/03/31 06:54:10;;;;;;;13.90;5.93;;;;;;;4.56;54.46;99150.72;5059571;28;20386;-57
2022/03/31 06:56:36;;;;;;;10.10;4.93;;;;;;;4.24;53.10;99150.88;5041013;28;20025;-56
2022/03/31 06:59:02;;;;;;;9.50;4.88;;;;;;;4.24;54.41;99144.03;5047708;28;20029;-57
2022/03/31 07:01:28;;;;;;;7.80;5.15;;;;;;;3.75;53.99;99147.63;5063848;28;20203;-57
2022/03/31 07:03:53;;;;;;;9.32;5.43;;;;;;;3.30;55.39;99144.28;5063854;28;20092;-56
2022/03/31 07:06:20;;;;;;;12.40;5.22;;;;;;;3.70;55.88;99145.94;5063905;28;20032;-57
2022/03/31 07:08:46;;;;;;;8.15;4.80;;;;;;;4.12;54.69;99144.94;5062416;28;20100;-56
2022/03/31 07:11:11;;;;;;;11.40;5.20;;;;;;;4.32;53.31;99138.88;5063463;28;20047;-57
2022/03/31 07:13:38;;;;;;;11.88;5.82;;;;;;;4.03;54.28;99149.25;5063126;28;20029;-57
2022/03/31 07:16:04;;;;;;;8.73;5.78;;;;;;;3.84;54.89;99140.78;5063869;28;20060;-56
2022/03/31 07:18:30;;;;;;;10.20;5.40;;;;;;;3.82;54.03;99142.47;5062497;28;20033;-56
2022/03/31 07:20:58;;;;;;;11.02;5.82;;;;;;;4.09;54.78;99144.09;5063853;28;20070;-56
2022/03/31 07:23:25;;;;;;;10.60;6.00;;;;;;;4.17;53.22;99147.47;5062094;28;20029;-56
2022/03/31 07:25:56;;;;;;;12.52;5.63;;;;;;;4.26;54.04;99144.00;5062487;28;20079;-57
2022/03/31 07:28:22;;;;;;;10.48;5.40;;;;;;;4.32;53.00;99141.44;5063718;28;20029;-56
2022/03/31 07:30:49;;;;;;;10.25;5.60;;;;;;;4.23;53.49;99146.59;5062466;28;20036;-57
2022/03/31 07:33:14;;;;;;;12.45;5.03;;;;;;;4.84;52.93;99146.25;5063284;28;20028;-56
2022/03/31 07:35:42;;;;;;;11.18;5.35;;;;;;;5.09;52.50;99135.81;5063600;28;20067;-58
2022/03/31 07:38:08;;;;;;;8.70;4.60;;;;;;;5.18;52.26;99137.44;5063462;28;20041;-58
2022/03/31 07:40:37;;;;;;;7.35;4.82;;;;;;;5.33;52.06;99150.16;5063293;28;20249;-58
2022/03/31 07:43:04;;;;;;;9.57;5.03;;;;;;;5.10;50.34;99139.22;5062508;28;20025;-57
2022/03/31 07:45:31;;;;;;;8.80;5.00;;;;;;;5.44;51.48;99162.03;5062717;28;20017;-56
2022/03/31 07:47:57;;;;;;;11.25;6.22;;;;;;;5.06;51.71;99147.78;5055362;28;20028;-57
2022/03/31 07:50:22;;;;;;;12.57;5.13;;;;;;;5.14;51.43;99156.28;5063052;28;20039;-57
2022/03/31 07:52:49;;;;;;;11.32;5.75;;;;;;;4.89;51.93;99156.50;5064439;28;20103;-56
2022/03/31 07:55:16;;;;;;;9.63;5.32;;;;;;;4.71;51.54;99108.72;5063061;28;20033;-56
2022/03/31 07:57:43;;;;;;;15.73;5.57;;;;;;;5.11;51.22;99156.31;5044874;28;20033;-56
2022/03/31 08:00:11;;;;;;;10.70;5.10;;;;;;;4.82;52.23;99158.22;5056733;28;20029;-56
2022/03/31 08:02:39;;;;;;;16.52;5.43;;;;;;;4.81;52.83;99146.25;5062779;28;20029;-57
2022/03/31 08:05:05;;;;;;;8.13;4.22;;;;;;;4.29;53.44;99132.06;5062666;28;20071;-57
2022/03/31 08:07:30;;;;;;;11.43;4.00;;;;;;;4.42;52.96;99162.75;5062613;28;20036;-57
2022/03/31 08:09:56;;;;;;;4.65;3.28;;;;;;;4.19;53.18;99155.16;5062866;28;20171;-57
2022/03/31 08:12:21;;;;;;;8.00;3.20;;;;;;;4.01;54.12;99151.81;5062399;28;20344;-56
2022/03/31 08:14:47;;;;;;;5.03;3.00;;;;;;;4.01;54.18;99163.78;5061154;28;20039;-57
2022/03/31 08:17:13;;;;;;;7.70;3.17;;;;;;;4.12;54.55;99159.47;5062106;28;20387;-57
2022/03/31 08:19:39;;;;;;;6.57;3.17;;;;;;;4.28;53.90;99161.09;5062557;28;20260;-57
2022/03/31 08:22:05;;;;;;;11.32;3.42;;;;;;;4.45;54.38;99161.00;5061169;28;20079;-57
2022/03/31 08:24:31;;;;;;;10.98;3.67;;;;;;;4.70;54.00;99157.47;5062192;28;20092;-56
2022/03/31 08:26:58;;;;;;;4.88;3.10;;;;;;;4.77;52.63;99159.97;5062196;28;20252;-57
2022/03/31 08:29:25;;;;;;;6.32;3.40;;;;;;;4.37;53.46;99161.91;5061938;28;20057;-57
2022/03/31 08:31:52;;;;;;;12.98;4.38;;;;;;;4.35;53.24;99145.69;5061350;28;20044;-56
2022/03/31 08:34:18;;;;;;;9.20;3.95;;;;;;;4.52;52.43;99154.16;5061962;28;20121;-57
2022/03/31 08:36:43;;;;;;;7.95;3.88;;;;;;;4.23;53.50;99139.78;5062249;28;20029;-57
2022/03/31 08:39:09;;;;;;;8.77;3.78;;;;;;;4.46;53.27;99149.91;5062118;28;20348;-57
2022/03/31 08:41:35;;;;;;;4.57;3.45;;;;;;;4.62;53.21;99145.53;5062293;28;20020;-57
2022/03/31 08:44:00;;;;;;;9.93;4.25;;;;;;;4.73;53.21;99142.91;5062124;28;20332;-57
2022/03/31 08:46:30;;;;;;;6.20;3.55;;;;;;;4.44;52.38;99164.44;5062189;28;20025;-57
2022/03/31 08:48:56;;;;;;;8.65;3.53;;;;;;;4.40;54.19;99143.94;5062862;28;20315;-57
2022/03/31 08:51:23;;;;;;;8.95;3.78;;;;;;;4.46;53.45;99120.84;5064788;28;20029;-56
2022/03/31 08:53:48;;;;;;;7.88;3.50;;;;;;;4.71;52.84;99134.38;5063797;28;20060;-57
2022/03/31 08:56:15;;;;;;;10.02;4.53;;;;;;;4.76;53.64;99139.47;5056537;28;20248;-57
2022/03/31 08:58:44;;;;;;;9.02;4.18;;;;;;;3.97;54.56;99140.72;5043163;28;20030;-57
2022/03/31 09:01:14;;;;;;;6.55;4.38;;;;;;;4.03;55.28;99133.88;5061006;28;20081;-56
2022/03/31 09:03:40;;;;;;;10.38;3.95;;;;;;;4.08;55.36;99139.84;5061908;28;20092;-57
2022/03/31 09:06:09;;;;;;;10.35;4.68;;;;;;;3.78;57.48;99144.22;5061940;28;20021;-57
2022/03/31 09:08:35;;;;;;;6.15;3.95;;;;;;;4.09;56.59;99134.72;5061834;28;20055;-57
2022/03/31 09:11:03;;;;;;;8.27;4.38;;;;;;;4.10;56.60;99133.81;5062002;28;20313;-58
2022/03/31 09:13:32;;;;;;;8.80;4.05;;;;;;;4.06;56.88;99103.09;5061791;28;20036;-57
2022/03/31 09:16:00;;;;;;;9.52;4.10;;;;;;;4.29;56.49;99120.94;5062091;28;20126;-56
2022/03/31 09:18:27;;;;;;;8.75;3.92;;;;;;;4.38;54.92;99120.88;5061648;28;20210;-56
2022/03/31 09:20:55;;;;;;;9.73;4.20;;;;;;;4.41;55.50;99122.59;5061857;28;20033;-57
2022/03/31 09:23:23;;;;;;;7.97;4.22;;;;;;;4.37;56.25;99131.16;5061586;28;20194;-57
2022/03/31 09:25:51;;;;;;;9.25;4.38;;;;;;;4.09;56.23;99118.47;5060576;28;20017;-56
2022/03/31 09:28:24;;;;;;;11.85;4.43;;;;;;;3.84;56.57;99057.09;5060569;28;20264;-57
2022/03/31 09:30:49;;;;;;;8.35;4.03;;;;;;;4.28;56.27;99120.09;5060300;28;20028;-57
2022/03/31 09:33:32;;;;;;;7.95;4.28;;;;;;;4.01;56.94;99066.44;5061617;28;20033;-57
2022/03/31 09:36:18;;;;;;;8.52;4.82;;;;;;;3.99;59.42;99122.81;5062007;28;20371;-57
2022/03/31 09:38:50;;;;;;;8.98;5.10;;;;;;;3.87;58.96;99051.97;5061615;28;20036;-57
2022/03/31 09:41:22;;;;;;;10.30;5.10;;;;;;;4.07;59.61;99059.53;5061635;28;20033;-56
2022/03/31 09:43:50;;;;;;;8.75;4.78;;;;;;;4.31;58.93;99107.25;5061521;28;20342;-57
2022/03/31 09:46:22;;;;;;;11.93;5.10;;;;;;;4.26;59.69;99109.00;5061810;28;20029;-57
2022/03/31 09:48:50;;;;;;;7.28;5.38;;;;;;;3.96;60.16;99105.72;5061638;28;20279;-57
2022/03/31 09:51:16;;;;;;;9.80;6.10;;;;;;;4.36;60.26;99108.94;5061651;28;20363;-56
2022/03/31 09:53:41;;;;;;;7.65;5.40;;;;;;;4.50;59.54;99102.00;5063930;28;20025;-56
2022/03/31 09:56:08;;;;;;;8.90;5.72;;;;;;;3.95;60.70;99103.16;5061773;28;20087;-57
2022/03/31 09:58:38;;;;;;;8.80;5.97;;;;;;;3.19;61.76;99044.53;5061776;28;20052;-57
2022/03/31 10:01:05;;;;;;;9.13;6.10;;;;;;;3.93;60.85;99100.63;5061448;28;20028;-57
2022/03/31 10:03:31;;;;;;;8.50;5.97;;;;;;;3.91;61.35;99104.88;5061231;28;20340;-58
2022/03/31 10:05:58;;;;;;;9.90;6.57;;;;;;;3.41;62.70;99104.16;5062223;28;20032;-57
2022/03/31 10:08:24;;;;;;;10.57;6.57;;;;;;;3.52;62.84;99096.47;5064650;28;20252;-58
2022/03/31 10:10:50;;;;;;;8.57;6.15;;;;;;;3.62;63.86;99103.28;5064027;28;20033;-57
2022/03/31 10:13:22;;;;;;;9.15;5.95;;;;;;;3.20;62.98;99082.03;5064441;28;20025;-57
2022/03/31 10:15:50;;;;;;;;;;;;;;;3.14;64.01;99101.66;5064561;28;20076;-57
2022/03/31 10:18:16;;;;;;;;;;;;;;;3.34;63.75;99091.41;5064528;28;19987;-58
2022/03/31 10:20:52;;;;;;;;;;;;;;;3.33;64.30;99090.53;5064988;28;19916;-57
2022/03/31 10:26:02;;;;;;;;;;;;;;;3.85;62.63;99089.53;5065378;28;19909;-57
2022/03/31 10:28:27;;;;;;;;;;;;;;;3.77;61.76;99088.72;5063169;28;20007;-57
2022/03/31 10:30:57;;;;;;;;;;;;;;;2.93;62.70;99093.97;5060717;28;19958;-57
2022/03/31 10:33:38;;;;;;;;;;;;;;;2.93;63.83;99096.53;5060525;28;19962;-56
2022/03/31 10:36:09;;;;;;;;;;;;;;;2.55;64.69;99099.06;5060403;28;20188;-57
2022/03/31 10:38:35;;;;;;;;;;;;;;;2.46;65.79;99101.63;5060513;28;19923;-56
2022/03/31 10:41:01;;;;;;;;;;;;;;;2.40;65.28;99093.09;5060480;28;19947;-57
2022/03/31 10:43:28;;;;;;;;;;;;;;;2.61;65.70;99096.53;5060111;28;19915;-58
2022/03/31 10:45:54;;;;;;;;;;;;;;;2.75;65.64;99097.41;5061272;28;20105;-57
2022/03/31 10:48:24;;;;;;;;;;;;;;;2.45;65.19;99092.25;5061148;28;20153;-57
2022/03/31 10:51:00;;;;;;;;;;;;;;;3.13;65.12;99084.59;5061948;28;19921;-58
2022/03/31 10:53:32;;;;;;;;;;;;;;;3.10;64.08;99090.56;5062873;28;20003;-57
2022/03/31 10:56:02;;;;;;;;;;;;;;;2.84;63.71;99085.47;5064115;28;19921;-56
2022/03/31 10:58:29;;;;;;;;;;;;;;;2.84;64.84;99096.56;5064123;28;19932;-57
2022/03/31 11:01:00;;;;;;;;;;;;;;;2.87;64.56;99081.19;5064322;28;19920;-57
2022/03/31 11:03:26;;;;;;;;;;;;;;;2.88;64.43;99088.03;5063480;28;19979;-57
2022/03/31 11:06:01;;;;;;;;;;;;;;;2.76;65.14;99088.00;5063354;28;19927;-57
2022/03/31 11:08:26;;;;;;;;;;;;;;;2.92;65.10;99084.63;5063532;28;19916;-57
2022/03/31 11:10:57;;;;;;;;;;;;;;;2.76;66.08;99080.34;5063964;28;20101;-57
2022/03/31 11:13:30;;;;;;;;;;;;;;;2.52;66.28;99092.28;5063706;28;19939;-57
2022/03/31 11:15:56;;;;;;;;;;;;;;;2.41;66.84;99081.19;5063954;28;20129;-56
2022/03/31 11:18:22;;;;;;;;;;;;;;;2.70;66.87;99072.69;5062925;28;19913;-57
2022/03/31 11:20:48;;;;;;;;;;;;;;;2.81;66.81;99076.09;5063594;28;19984;-56
2022/03/31 11:23:14;;;;;;;;;;;;;;;2.20;70.30;99081.97;5062730;28;19925;-57
2022/03/31 11:25:42;;;;;;;;;;;;;;;1.79;73.03;99080.97;5064013;28;19940;-56
2022/03/31 11:28:12;;;;;;;;;;;;;;;2.18;73.03;99081.09;5060932;28;19915;-56
2022/03/31 11:30:38;;;;;;;;;;;;;;;2.23;72.69;99077.72;5063758;28;19916;-56
2022/03/31 11:33:04;;;;;;;;;;;;;;;2.12;73.51;99074.28;5063654;28;20117;-56
2022/03/31 11:35:30;;;;;;;;;;;;;;;2.03;74.49;99074.28;5063316;28;19913;-56
2022/03/31 11:38:00;;;;;;;;;;;;;;;1.78;75.29;99068.22;5064260;28;19954;-56
2022/03/31 11:40:27;;;;;;;;;;;;;;;1.87;74.38;99064.00;5064008;28;19908;-56
2022/03/31 11:42:54;;;;;;;;;;;;;;;1.83;75.06;99069.94;5063688;28;20104;-56
2022/03/31 11:45:28;;;;;;;;;;;;;;;1.91;75.01;99077.66;5063760;28;20392;-57
2022/03/31 11:47:57;;;;;;;;;;;;;;;1.86;75.02;99072.50;5063831;28;19915;-56
2022/03/31 11:50:23;;;;;;;;;;;;;;;1.59;75.66;99075.78;5063414;28;19908;-56
2022/03/31 11:52:49;;;;;;;;;;;;;;;1.70;75.45;99071.59;5063410;28;19990;-56
2022/03/31 11:55:14;;;;;;;;;;;;;;;1.79;74.80;99070.78;5063534;28;19913;-56
2022/03/31 11:57:49;;;;;;;;;;;;;;;2.00;75.79;99059.78;5047553;28;19908;-56